Terminal Aerodrome Forecast
Issued by NWS

Home | Current Version | Previous Version | Text Only | Print | Product List | Glossary On
Versions: 1 2 3 4 5 6 7 8 9 10 11 12 13 14 15 16 17 18 19 20 21 22 23 24 25 26 27 28 29
000
FTUS44 KHGX 210301 AAA
TAFIAH
TAF AMD
KIAH 210301Z 2103/2206 15008KT P6SM VCSH BKN008 OVC020
     FM210600 15007KT 5SM BR VCSH SCT008 OVC012
      TEMPO 2111/2115 3SM BR OVC008
     FM211600 17012KT P6SM OVC015
     FM211900 17015G25KT P6SM VCSH BKN025 BKN040
     FM220000 19012KT P6SM VCSH BKN015 OVC025=

USA.gov is the U.S. government's official web portal to all federal, state and local government web resources and services.